Aviation Digital Data Service (ADDS)

Output produced by METARs form (0545 UTC 31 May 2016)
found at http://aviationweather.gov/adds/metars/
 
KCDW 310542Z AUTO 22003KT 10SM FEW016 SCT024 23/19 A2994 RMK AO2 T02280194 TSNO
KMMU 310530Z AUTO 00000KT 10SM BKN012 BKN016 OVC022 21/19 A2994 RMK AO2
KFWN 310453Z AUTO 00000KT 6SM BR FEW110 18/17 A2995 RMK AO2 SLP138 T01830172 402890178
KTEB 310508Z 22005KT 10SM BKN019 23/19 A2992 RMK AO2 $
KTEB 310543Z 3106/0106 23004KT P6SM BKN015 
     FM311200 VRB04KT P6SM SCT015 SCT070 
     FM311500 02005KT P6SM SCT035 SCT070 
     FM311700 VRB05KT P6SM SCT050 
     FM312000 15006KT P6SM FEW080 
     FM010000 VRB03KT P6SM FEW080
       
KEWR 310509Z 22007KT 10SM BKN014 OVC140 22/20 A2994 RMK AO2 $
KEWR 310543Z 3106/0112 23005KT P6SM BKN015 
     TEMPO 3110/3111 OVC009 
     FM311200 VRB05KT P6SM SCT015 SCT070 
     FM311500 01006KT P6SM SCT035 SCT070 
     FM311700 VRB05KT P6SM SCT050 
     FM311900 15007KT P6SM FEW080 
     FM010000 25006KT P6SM FEW080 
     FM010300 35005KT P6SM FEW080 
     FM010600 02006KT P6SM FEW080
       
KDXR 310453Z AUTO 22007KT 10SM SCT011 SCT018 22/19 A2994 RMK AO2 SLP136 T02170194 402670183
KHPN 310456Z 00000KT 10SM FEW020 21/19 A2994 RMK AO2 SLP132 T02060194 402720189 $
KHPN 310543Z 3106/0106 VRB03KT P6SM SCT020 SCT120 BKN250 
     FM310700 VRB03KT P6SM BKN015 
     TEMPO 3109/3111 5SM BR 
     FM311200 33004KT P6SM SCT015 SCT070 
     FM311500 35005KT P6SM SCT035 SCT070 
     FM311700 32005KT P6SM SCT050 
     FM312100 18004KT P6SM FEW080 
     FM010000 VRB03KT P6SM FEW080 AMD NOT SKED
       
KABE 310523Z 00000KT 10SM SCT019 20/17 A2995 RMK AO2
KABE 310527Z 3106/0106 VRB02KT P6SM SCT015 
     TEMPO 3106/3108 BKN015 
     FM310800 00000KT 3SM BR SKC 
     FM311200 34003KT P6SM FEW050 SCT200 
     FM010100 VRB03KT P6SM BKN250
       
KAVP 310454Z AUTO 00000KT 7SM CLR 17/16 A2997 RMK AO2 SLP141 T01720161 403000172 $
KAVP 310526Z 3106/0106 VRB03KT 4SM BR SCT200 
     TEMPO 3108/3112 2SM BR 
     FM311200 33007KT P6SM FEW250 
     FM010100 02004KT P6SM FEW250
       
KSWF 310445Z 27007KT 10SM SKC 20/18 A2994
KSWF 310008Z 3100/0106 22005KT P6SM BKN040 
     TEMPO 3100/3102 -SHRA 
     FM310200 VRB04KT P6SM BKN100 
     FM310500 VRB04KT 3SM BR BKN040 
     FM311200 30008KT P6SM FEW040 SCT090 BKN250 
     FM010200 VRB04KT P6SM FEW060 SCT250 AMD NOT SKED
       
KMSV 310535Z AUTO 00000KT 9SM CLR 16/16 A2998 RMK AO1
KPOU 310453Z AUTO 00000KT 10SM FEW110 22/17 A2991 RMK AO2 SLP125 T02220172 402940183 TSNO
KPOU 310521Z 3106/0106 00000KT P6SM FEW050 BKN100 
     TEMPO 3108/3112 1 1/2SM BR SCT005 SCT250 
     FM311200 29005KT P6SM SKC 
     FM311600 30008G18KT P6SM SKC 
     FM010000 00000KT P6SM SKC
       
KACY 310454Z 23003KT 1/2SM BR OVC002 20/20 A2996 RMK AO2 SFC VIS 2 SLP146 T02000200 402390200
KACY 310527Z 3106/0106 VRB02KT 2SM BR OVC002 
     FM310900 00000KT 1SM BR OVC002 
     FM311500 00000KT 4SM BR BKN004 
     FM311800 32004KT P6SM FEW040 
     FM312000 16006KT P6SM FEW040
       
KGON 310456Z AUTO 24006KT 10SM FEW120 20/19 A2993 RMK AO2 SLP134 T02000194 402000161
KGON 310223Z 3102/3124 23006KT P6SM VCSH OVC007 
     FM310400 VRB03KT P6SM -SHRA SCT007 BKN012 
     FM310600 VRB03KT 1/2SM -SHRA FG OVC004 
     FM311200 25005KT 2SM BR OVC004 
     FM311400 31005KT P6SM FEW004 SCT250 
     FM311600 20007KT P6SM FEW040 SCT250
       


 (Extracted from FBUS31 KWNO 310201)
FD1US1
DATA BASED ON 310000Z    
VALID 310600Z   FOR USE 0200-0900Z. TEMPS NEG ABV 24000

FT  3000    6000    9000   12000   18000   24000  30000  34000  39000
BDL 2917 2810+12 2518+07 2520+01 2621-10 2436-22 236436 237847 239059
BGR 3025 2823+12 2524+06 2534+01 2440-11 2553-22 247737 249148 750259
CAR 2829 2830+10 2724+04 2631+00 2641-13 2651-25 258238 750347 751158
PWM 2927 2720+13 2525+07 2530+01 2431-11 2446-21 236837 248048 249759
EMI 3107 3608+13 3606+07 3005+02 2712-09 2428-20 233836 224547 224859
ACK 2528 2526+12 2526+07 2428+02 2338-09 2446-19 245136 245647 246759
BOS 3020 2712+13 2518+07 2424+02 2520-10 2443-20 235836 237148 248559
BML 2825 2827+11 2625+06 2527+02 2534-12 2544-24 247237 239248 740559
ACY 2607 9900+12 2407+07 2509+02 2519-09 2432-20 215035 205947 226959
ALB 3026 2725+12 2528+06 2524+01 2629-11 2539-23 236737 238347 239459
BUF 2912 3025+09 2928+03 2719+02 2823-12 2831-24 294640 284549 264159
JFK 2810 2808+13 2612+07 2413+02 2616-10 2440-21 236036 227447 238159
PLB 2827 2625+10 2621+06 2525+01 2630-13 2636-25 246139 238648 730158
SYR 3024 2926+09 2727+05 2724+02 2824-12 2731-25 264440 245849 237857
CLE 2807 2912+12 2914+05 3013+01 2914-11 2821-22 283739 285649 285359
CMH 9900 3310+12 3311+06 3007+01 2808-11 2716-22 284137 274548 274160
CVG 9900 0407+12 0405+06 9900+01 9900-12 2615-22 264637 264048 254759
AGC 9900 3109+12 3113+05 2808+02 2810-10 2922-21 283838 294748 263059
AVP 3418 3109+12 2511+06 2615+02 2720-10 2536-22 245537 226947 227859
PSB      2913+12 2814+05 2812+02 2815-10 2727-22 264438 255048 234858
ORF 9900 9900+13 9900+08 2406+03 2216-09 2021-20 183436 183846 193958
RIC 9900 9900+12 9900+07 9900+03 2311-09 2314-20 202036 192547 212758
ROA 9900 0509+13 0507+07 9900+02 9900-10 2809-20 312436 302047 252058
CRW 0305 0307+13 9900+06 9900+02 9900-11 3116-20 303336 293347 242058
EKN      3606+13 9900+06 9900+02 2906-10 2812-21 303536 303147 241659


 (Extracted from FBUS33 KWNO 310201)
FD3US3
DATA BASED ON 310000Z    
VALID 311200Z   FOR USE 0900-1800Z. TEMPS NEG ABV 24000

FT  3000    6000    9000   12000   18000   24000  30000  34000  39000
BDL 3326 2820+12 2623+06 2725+02 2728-10 2733-23 246236 228047 237560
BGR 3015 2520+11 2530+05 2635+00 2641-12 2648-25 247639 740347 750259
CAR 3014 2724+09 2633+04 2638+00 2640-14 2638-26 255542 247450 257356
PWM 2917 2626+12 2535+06 2635+01 2639-11 2644-24 247737 730147 249660
EMI 0117 3312+12 2909+06 2813+02 2708-10 2813-20 291537 281648 252959
ACK 2912 2716+12 2522+07 2526+01 2431-10 2344-20 235336 235847 236960
BOS 3118 2617+11 2622+05 2628+01 2633-10 2642-22 237536 228447 239060
BML 2817 2825+09 2727+07 2732+01 2738-12 2644-25 265640 246949 249358
ACY 3513 3411+12 3210+07 2611+02 2513-09 2424-20 212837 204147 224358
ALB 3129 3029+10 2825+06 2727+02 2833-11 2736-23 254338 245648 237359
BUF 3213 3019+08 2933+02 2829+02 2826-11 2829-24 273541 274550 275359
JFK 0116 3312+11 2914+06 2615+02 2720-10 2628-21 234736 215847 225959
PLB 3019 2826+08 2830+06 2737+02 2644-13 2653-25 265841 266151 247158
SYR 3128 3034+08 3039+04 2833+03 2832-11 2736-24 263840 264350 265559
CLE 3409 3112+11 3121+06 3018+01 2710-12 2318-23 272839 264648 265560
CMH 2806 3210+12 3418+05 3008+01 2608-11 2316-23 242238 253848 244960
CVG 9900 0406+12 0412+05 9900+00 2212-12 2217-23 241838 234148 234860
AGC 2907 3311+11 3113+05 3115+02 2611-10 2509-22 272637 264148 274560
AVP 3518 3321+11 2918+06 2719+03 2821-10 2725-22 263638 263648 235360
PSB      3313+11 3115+04 2819+02 2815-10 2714-22 273338 284448 244459
ORF 0105 3106+12 2606+08 2408+02 2210-10 2210-21 231436 231646 231957
RIC 0111 0109+12 0105+07 9900+02 2406-10 2408-21 300837 261047 251857
ROA 3611 0411+12 0406+06 9900+01 9900-10 9900-19 311536 291547 262359
CRW 0309 0309+12 0107+06 9900+01 2609-10 2308-21 262437 252747 263260
EKN      0110+12 3407+06 2908+02 2607-10 2306-20 282637 272747 282659